Time;durP1;ratioP1;P1;durP2;ratioP2;P2;SDS_P1;SDS_P2;PMS_P1;PMS_P2;Temp;Humidity;BMP_temperature;BMP_pressure;BME280_temperature;BME280_humidity;BME280_pressure;Samples;Min_cycle;Max_cycle;Signal;HPM_P1;HPM_P2
2023/07/21 00:00:15;;;;;;;5.22;4.72;;;;;;;13.93;95.33;101062.38;5041471;28;20037;-64
2023/07/21 00:02:49;;;;;;;5.18;4.68;;;;;;;13.99;94.71;101067.31;5036509;28;20048;-64
2023/07/21 00:05:16;;;;;;;4.68;4.28;;;;;;;13.90;95.31;101063.41;5031934;28;20077;-65
2023/07/21 00:07:42;;;;;;;5.22;4.72;;;;;;;13.93;94.80;101060.53;5042355;28;20061;-64
2023/07/21 00:10:09;;;;;;;5.70;4.60;;;;;;;13.97;94.94;101071.06;5039877;28;20036;-65
2023/07/21 00:12:35;;;;;;;5.15;4.43;;;;;;;13.84;95.24;101055.75;5033833;28;20048;-64
2023/07/21 00:15:02;;;;;;;6.10;4.80;;;;;;;13.82;95.65;101071.03;5038804;28;20025;-64
2023/07/21 00:17:30;;;;;;;4.75;4.07;;;;;;;13.81;96.32;101063.13;5029715;28;20049;-64
2023/07/21 00:20:06;;;;;;;5.10;4.70;;;;;;;13.79;96.44;101063.19;5028682;28;20036;-65
2023/07/21 00:22:32;;;;;;;6.03;5.22;;;;;;;13.77;96.67;101067.78;5031195;28;20100;-65
2023/07/21 00:25:00;;;;;;;4.40;4.00;;;;;;;13.82;96.29;101067.50;5029558;28;20112;-64
2023/07/21 00:27:26;;;;;;;5.60;5.10;;;;;;;13.77;96.76;101059.75;5038022;28;20017;-64
2023/07/21 00:29:51;;;;;;;5.07;4.60;;;;;;;13.77;97.08;101059.75;5023290;28;20033;-65
2023/07/21 00:32:18;;;;;;;5.63;5.07;;;;;;;13.83;97.10;101062.03;5030930;28;20025;-65
2023/07/21 00:34:44;;;;;;;5.47;4.97;;;;;;;13.83;96.83;101054.00;5033164;28;20025;-65
2023/07/21 00:37:10;;;;;;;4.90;4.50;;;;;;;13.88;97.13;101062.66;5023965;28;20053;-64
2023/07/21 00:39:36;;;;;;;5.53;5.03;;;;;;;13.85;96.57;101065.50;5024184;28;20223;-65
2023/07/21 00:42:03;;;;;;;6.20;5.15;;;;;;;13.81;97.16;101055.09;5038528;28;20422;-66
2023/07/21 00:44:28;;;;;;;7.72;5.82;;;;;;;13.75;97.15;101053.63;5034131;28;20021;-65
2023/07/21 00:46:54;;;;;;;7.63;6.85;;;;;;;13.77;97.61;101051.72;5023180;28;20198;-65
2023/07/21 00:49:20;;;;;;;6.30;5.80;;;;;;;13.84;97.50;101042.38;5025467;28;20039;-66
2023/07/21 00:51:45;;;;;;;7.30;6.60;;;;;;;13.87;97.48;101052.88;5037292;28;20029;-65
2023/07/21 00:54:11;;;;;;;8.02;7.32;;;;;;;13.90;97.47;101042.00;5026715;28;20032;-65
2023/07/21 00:56:36;;;;;;;7.65;6.95;;;;;;;13.86;97.62;101037.78;5023080;28;20228;-65
2023/07/21 00:59:03;;;;;;;6.80;6.20;;;;;;;13.86;97.67;101040.47;5022872;28;20030;-65
2023/07/21 01:01:29;;;;;;;7.32;6.72;;;;;;;13.81;98.41;101039.03;5028481;28;20104;-64
2023/07/21 01:03:56;;;;;;;8.27;7.03;;;;;;;13.81;98.30;101031.00;5032410;28;20352;-65
2023/07/21 01:06:27;;;;;;;7.47;6.88;;;;;;;13.78;98.33;101034.72;5024920;28;20014;-65
2023/07/21 01:08:57;;;;;;;7.43;6.82;;;;;;;13.84;98.41;101023.66;5039128;28;20036;-64
2023/07/21 01:11:24;;;;;;;7.53;6.90;;;;;;;13.77;98.74;101027.66;5035769;28;20087;-65
2023/07/21 01:13:50;;;;;;;7.50;6.75;;;;;;;13.79;98.07;101022.19;5030611;28;20095;-65
2023/07/21 01:16:17;;;;;;;7.07;6.47;;;;;;;13.78;98.69;101026.69;5032325;28;20033;-65
2023/07/21 01:18:44;;;;;;;7.50;6.80;;;;;;;13.73;98.70;101022.59;5039942;28;20028;-65
2023/07/21 01:21:14;;;;;;;7.72;6.93;;;;;;;13.71;98.88;101014.66;5039144;28;20029;-66
2023/07/21 01:23:48;;;;;;;7.03;6.32;;;;;;;13.70;98.72;101020.94;5040181;28;20043;-65
2023/07/21 01:26:16;;;;;;;7.55;6.85;;;;;;;13.63;99.01;101012.47;5045106;28;20035;-65
2023/07/21 01:28:43;;;;;;;7.60;6.20;;;;;;;13.61;99.05;101010.81;5028844;28;20120;-65
2023/07/21 01:31:10;;;;;;;6.50;5.90;;;;;;;13.61;99.66;101010.81;5026493;28;20018;-65
2023/07/21 01:33:36;;;;;;;7.30;6.60;;;;;;;13.51;99.83;101015.00;5026752;28;20017;-64
2023/07/21 01:36:04;;;;;;;6.97;6.28;;;;;;;13.49;100.00;101001.72;5039340;28;20029;-65
2023/07/21 01:38:31;;;;;;;9.02;6.32;;;;;;;13.53;99.70;100997.06;5030191;28;20049;-65
2023/07/21 01:40:56;;;;;;;7.25;6.55;;;;;;;13.48;99.93;100986.63;5041111;28;20319;-65
2023/07/21 01:43:23;;;;;;;7.18;6.47;;;;;;;13.44;99.66;100990.44;5043508;28;20033;-66
2023/07/21 01:45:49;;;;;;;8.45;6.50;;;;;;;13.45;99.91;100995.69;5037824;28;20025;-65
2023/07/21 01:48:14;;;;;;;8.48;7.53;;;;;;;13.41;100.00;100995.97;5035660;28;20045;-65
2023/07/21 01:50:42;;;;;;;7.70;6.90;;;;;;;13.37;100.00;100989.94;5038038;28;20060;-63
2023/07/21 01:53:19;;;;;;;8.20;6.68;;;;;;;13.29;100.00;100996.69;5041440;28;20048;-65
2023/07/21 01:56:05;;;;;;;10.77;6.82;;;;;;;13.28;100.00;100998.53;5033366;28;20305;-65
2023/07/21 01:58:33;;;;;;;8.43;6.85;;;;;;;13.20;100.00;100992.75;5035278;28;20028;-65
2023/07/21 02:01:01;;;;;;;9.40;6.82;;;;;;;13.18;100.00;100989.31;5045564;28;20080;-65
2023/07/21 02:03:27;;;;;;;7.85;6.75;;;;;;;13.09;100.00;100996.06;5028736;28;20120;-65
2023/07/21 02:05:52;;;;;;;9.15;6.55;;;;;;;13.06;100.00;100985.53;5038996;28;20190;-64
2023/07/21 02:08:20;;;;;;;8.65;6.72;;;;;;;13.02;100.00;100988.50;5027021;28;20033;-65
2023/07/21 02:10:46;;;;;;;10.90;7.30;;;;;;;12.98;100.00;100978.94;5044074;28;20423;-65
2023/07/21 02:13:13;;;;;;;7.70;6.65;;;;;;;12.99;100.00;100986.00;5027028;28;20017;-64
2023/07/21 02:15:41;;;;;;;7.57;6.88;;;;;;;12.98;100.00;100981.59;5035189;28;20028;-65
2023/07/21 02:18:07;;;;;;;12.60;7.18;;;;;;;12.97;100.00;100986.09;5044210;28;20040;-65
2023/07/21 02:20:32;;;;;;;8.02;7.22;;;;;;;12.92;100.00;100983.69;5041669;28;20013;-66
2023/07/21 02:23:01;;;;;;;10.70;7.53;;;;;;;12.86;100.00;100981.34;5033782;28;20687;-64
2023/07/21 02:25:26;;;;;;;9.98;7.82;;;;;;;12.89;100.00;100977.66;5024326;28;20123;-65
2023/07/21 02:27:51;;;;;;;10.73;7.88;;;;;;;12.82;100.00;100982.50;5025446;28;20049;-65
2023/07/21 02:30:17;;;;;;;11.07;8.25;;;;;;;12.78;100.00;100980.09;5025323;28;20495;-65
2023/07/21 02:32:43;;;;;;;11.52;8.32;;;;;;;12.75;100.00;100980.25;5039641;28;20624;-65
2023/07/21 02:35:08;;;;;;;13.48;8.52;;;;;;;12.67;100.00;100983.41;5042307;28;20025;-65
2023/07/21 02:37:35;;;;;;;12.32;8.52;;;;;;;12.71;100.00;100983.13;5040421;28;20032;-64
2023/07/21 02:40:03;;;;;;;9.80;8.38;;;;;;;12.70;100.00;100980.53;5041962;28;20029;-65
2023/07/21 02:42:28;;;;;;;9.63;8.77;;;;;;;12.69;100.00;100977.00;5029014;28;20033;-65
2023/07/21 02:44:54;;;;;;;9.70;8.70;;;;;;;12.66;100.00;100978.97;5025173;28;20036;-65
2023/07/21 02:47:19;;;;;;;9.50;8.55;;;;;;;12.66;100.00;100976.31;5024879;28;20046;-65
2023/07/21 02:49:44;;;;;;;9.88;8.85;;;;;;;12.63;100.00;100982.69;5037716;28;20047;-64
2023/07/21 02:52:10;;;;;;;11.52;9.68;;;;;;;12.56;100.00;100975.13;5039035;28;20046;-66
2023/07/21 02:54:36;;;;;;;11.35;9.52;;;;;;;12.53;100.00;100976.16;5025182;28;20037;-64
2023/07/21 02:57:02;;;;;;;9.32;8.43;;;;;;;12.55;100.00;100970.75;5035870;28;20487;-65
2023/07/21 02:59:28;;;;;;;9.38;8.40;;;;;;;12.52;100.00;100971.75;5031373;28;20065;-65
2023/07/21 03:01:56;;;;;;;12.20;8.70;;;;;;;12.48;100.00;100972.03;5039399;28;20649;-65
2023/07/21 03:04:26;;;;;;;9.35;8.45;;;;;;;12.40;100.00;100967.97;5030129;28;20028;-65
2023/07/21 03:06:51;;;;;;;9.48;8.20;;;;;;;12.41;100.00;100972.34;5038292;28;20107;-66
2023/07/21 03:09:17;;;;;;;9.73;7.97;;;;;;;12.37;100.00;100964.63;5039617;28;20055;-64
2023/07/21 03:11:43;;;;;;;9.32;8.35;;;;;;;12.42;100.00;100971.44;5035212;28;20025;-65
2023/07/21 03:14:09;;;;;;;11.20;9.27;;;;;;;12.35;100.00;100972.72;5051699;28;20048;-64
2023/07/21 03:16:36;;;;;;;13.00;9.00;;;;;;;12.37;100.00;100964.63;5026707;28;20028;-64
2023/07/21 03:19:01;;;;;;;10.57;8.77;;;;;;;12.34;100.00;100973.66;5036900;28;20118;-65
2023/07/21 03:21:27;;;;;;;11.48;8.90;;;;;;;12.28;100.00;100966.00;5026155;28;20053;-65
2023/07/21 03:23:52;;;;;;;9.45;8.57;;;;;;;12.27;100.00;100968.75;5028449;28;20082;-65
2023/07/21 03:26:18;;;;;;;13.77;8.60;;;;;;;12.20;100.00;100963.75;5041648;28;20429;-64
2023/07/21 03:28:43;;;;;;;9.75;8.80;;;;;;;12.19;100.00;100967.38;5032371;28;20032;-64
2023/07/21 03:31:11;;;;;;;9.70;8.60;;;;;;;12.18;100.00;100965.66;5025718;28;20090;-65
2023/07/21 03:33:37;;;;;;;12.02;9.13;;;;;;;12.12;100.00;100970.47;5027341;28;20037;-65
2023/07/21 03:36:04;;;;;;;11.30;9.48;;;;;;;12.12;100.00;100968.69;5028002;28;20044;-65
2023/07/21 03:38:32;;;;;;;9.70;8.80;;;;;;;12.07;100.00;100970.72;5027042;28;20475;-66
2023/07/21 03:41:12;;;;;;;10.52;9.25;;;;;;;11.96;100.00;100971.31;5033033;28;20553;-65
2023/07/21 03:43:38;;;;;;;10.82;9.35;;;;;;;11.95;100.00;100972.28;5036008;28;20029;-66
2023/07/21 03:46:05;;;;;;;10.10;9.13;;;;;;;11.98;100.00;100965.88;5039157;28;20022;-65
2023/07/21 03:48:34;;;;;;;11.88;9.63;;;;;;;11.97;100.00;100972.19;5040999;28;20313;-65
2023/07/21 03:51:01;;;;;;;11.68;9.45;;;;;;;11.97;100.00;100969.50;5037377;28;20048;-64
2023/07/21 03:53:27;;;;;;;11.15;9.98;;;;;;;12.02;100.00;100963.91;5029246;28;20108;-64
2023/07/21 03:55:53;;;;;;;11.15;10.05;;;;;;;11.97;100.00;100961.50;5034490;28;20120;-65
2023/07/21 03:58:19;;;;;;;11.93;9.80;;;;;;;11.99;100.00;100959.59;5027101;28;20113;-64
2023/07/21 04:00:44;;;;;;;10.77;9.65;;;;;;;12.00;100.00;100961.34;5032184;28;20185;-64
2023/07/21 04:03:13;;;;;;;10.63;9.52;;;;;;;11.95;100.00;100964.28;5040672;28;20025;-65
2023/07/21 04:05:39;;;;;;;12.18;9.80;;;;;;;11.96;100.00;100963.31;5033730;28;20077;-63
2023/07/21 04:08:05;;;;;;;13.20;10.15;;;;;;;11.93;100.00;100958.16;5027523;28;20498;-64
2023/07/21 04:10:31;;;;;;;12.07;10.77;;;;;;;11.92;100.00;100945.75;5030268;28;20410;-64
2023/07/21 04:12:56;;;;;;;12.82;11.45;;;;;;;11.92;100.00;100947.56;5034171;28;20163;-64
2023/07/21 04:15:26;;;;;;;11.93;10.07;;;;;;;11.94;100.00;100951.84;5038514;28;20031;-65
2023/07/21 04:17:53;;;;;;;13.18;11.20;;;;;;;11.98;100.00;100947.22;5039883;28;20076;-64
2023/07/21 04:20:18;;;;;;;12.25;11.05;;;;;;;12.04;100.00;100957.56;5033237;28;20025;-65
2023/07/21 04:22:44;;;;;;;12.45;11.25;;;;;;;12.04;100.00;100954.91;5037578;28;20055;-64
2023/07/21 04:25:11;;;;;;;13.23;11.82;;;;;;;12.11;100.00;100953.59;5032399;28;20033;-64
2023/07/21 04:27:36;;;;;;;12.15;11.05;;;;;;;12.08;100.00;100942.22;5038333;28;20412;-64
2023/07/21 04:30:02;;;;;;;11.90;10.60;;;;;;;12.14;100.00;100942.75;5023203;28;20025;-64
2023/07/21 04:32:27;;;;;;;12.05;10.88;;;;;;;12.16;100.00;100935.53;5032811;28;20025;-65
2023/07/21 04:34:52;;;;;;;12.10;10.90;;;;;;;12.13;100.00;100942.84;5024252;28;20028;-65
2023/07/21 04:37:18;;;;;;;11.73;10.63;;;;;;;12.24;100.00;100944.91;5047920;28;20399;-65
2023/07/21 04:39:43;;;;;;;11.63;10.55;;;;;;;12.25;100.00;100949.28;5023885;28;20025;-65
2023/07/21 04:42:09;;;;;;;12.57;11.48;;;;;;;12.29;100.00;100946.38;5023890;28;20570;-65
2023/07/21 04:44:34;;;;;;;12.40;11.23;;;;;;;12.36;100.00;100946.88;5027825;28;20542;-65
2023/07/21 04:47:00;;;;;;;13.70;12.35;;;;;;;12.38;100.00;100945.88;5041641;28;20127;-65
2023/07/21 04:49:25;;;;;;;13.20;12.00;;;;;;;12.47;100.00;100931.13;5045353;28;20479;-64
2023/07/21 04:51:51;;;;;;;14.40;12.98;;;;;;;12.48;100.00;100935.50;5036811;28;20103;-64
2023/07/21 04:54:16;;;;;;;14.63;13.18;;;;;;;12.55;100.00;100931.56;5043506;28;20491;-64
2023/07/21 04:56:43;;;;;;;16.08;14.70;;;;;;;12.60;100.00;100939.28;5036339;28;20029;-64
2023/07/21 04:59:09;;;;;;;16.13;14.73;;;;;;;12.63;100.00;100933.78;5038721;28;20044;-64
2023/07/21 05:01:35;;;;;;;17.75;15.93;;;;;;;12.72;100.00;100927.91;5038153;28;20419;-64
2023/07/21 05:04:00;;;;;;;17.25;15.60;;;;;;;12.80;100.00;100930.97;5029574;28;20286;-64
2023/07/21 05:06:26;;;;;;;17.90;16.30;;;;;;;12.89;100.00;100930.44;5047125;28;20632;-64
2023/07/21 05:08:51;;;;;;;18.00;16.42;;;;;;;12.99;100.00;100921.88;5029625;28;20113;-65
2023/07/21 05:11:16;;;;;;;18.40;16.80;;;;;;;13.17;100.00;100926.13;5030023;28;20025;-64
2023/07/21 05:13:44;;;;;;;19.13;17.35;;;;;;;13.23;100.00;100922.25;5046327;28;20379;-64
2023/07/21 05:16:10;;;;;;;19.17;17.48;;;;;;;13.36;100.00;100916.06;5033996;28;20451;-64
2023/07/21 05:18:37;;;;;;;19.92;18.13;;;;;;;13.48;100.00;100918.94;5039305;28;20033;-64
2023/07/21 05:21:02;;;;;;;21.45;19.48;;;;;;;13.55;100.00;100912.25;5036694;28;20029;-65
2023/07/21 05:23:29;;;;;;;20.90;18.95;;;;;;;13.63;100.00;100918.84;5045923;28;20059;-64
2023/07/21 05:26:00;;;;;;;21.60;19.55;;;;;;;13.76;100.00;100916.25;5047983;28;20025;-64
2023/07/21 05:28:26;;;;;;;22.23;20.17;;;;;;;13.88;100.00;100909.28;5044375;28;20454;-64
2023/07/21 05:30:51;;;;;;;20.98;19.08;;;;;;;13.99;100.00;100916.59;5041425;28;20052;-66
2023/07/21 05:33:17;;;;;;;21.85;19.73;;;;;;;14.09;100.00;100905.22;5035688;28;20034;-64
2023/07/21 05:35:42;;;;;;;20.83;19.02;;;;;;;14.23;99.59;100920.38;5044458;28;20033;-65
2023/07/21 05:38:09;;;;;;;20.95;19.08;;;;;;;14.35;99.22;100911.56;5039715;28;20432;-65
2023/07/21 05:40:34;;;;;;;20.98;18.98;;;;;;;14.49;98.52;100921.38;5046228;28;20052;-64
2023/07/21 05:43:02;;;;;;;23.55;20.13;;;;;;;14.57;98.67;100921.75;5027729;28;20511;-65
2023/07/21 05:45:28;;;;;;;20.75;18.70;;;;;;;14.73;98.31;100926.09;5044875;28;20145;-64
2023/07/21 05:47:55;;;;;;;21.25;18.65;;;;;;;14.88;98.02;100917.00;5040934;28;20049;-64
2023/07/21 05:50:21;;;;;;;21.27;19.08;;;;;;;15.02;97.41;100924.13;5038792;28;20096;-64
2023/07/21 05:52:50;;;;;;;21.35;19.13;;;;;;;15.11;96.73;100923.50;5039092;28;20121;-64
2023/07/21 05:55:16;;;;;;;21.83;19.83;;;;;;;15.24;94.83;100929.72;5044083;28;20025;-64
2023/07/21 05:57:42;;;;;;;21.88;19.73;;;;;;;15.31;94.51;100936.38;5048792;28;20115;-64
2023/07/21 06:00:12;;;;;;;22.25;20.02;;;;;;;15.40;93.57;100938.41;5032508;28;20013;-63
2023/07/21 06:02:38;;;;;;;24.42;21.83;;;;;;;15.58;93.87;100941.63;5035711;28;22797;-64
2023/07/21 06:05:03;;;;;;;24.58;22.10;;;;;;;15.76;92.46;100934.16;5041563;28;20044;-64
2023/07/21 06:07:29;;;;;;;23.35;21.05;;;;;;;15.97;91.97;100936.25;5025533;28;20518;-64
2023/07/21 06:09:54;;;;;;;24.13;21.73;;;;;;;16.17;90.78;100932.97;5024749;28;20025;-64
2023/07/21 06:12:19;;;;;;;24.38;21.88;;;;;;;16.41;89.99;100939.25;5035459;28;20496;-65
2023/07/21 06:14:45;;;;;;;23.08;20.67;;;;;;;16.55;89.12;100930.16;5031612;28;20094;-64
2023/07/21 06:17:10;;;;;;;24.73;22.23;;;;;;;16.79;88.11;100938.25;5024280;28;20396;-64
2023/07/21 06:19:35;;;;;;;24.45;21.50;;;;;;;16.90;86.51;100935.63;5041498;28;20025;-64
2023/07/21 06:22:01;;;;;;;25.23;21.38;;;;;;;17.09;85.06;100920.75;5036381;28;20101;-63
2023/07/21 06:24:26;;;;;;;24.23;21.80;;;;;;;17.30;84.21;100934.38;5024718;28;20480;-64
2023/07/21 06:26:51;;;;;;;25.00;21.75;;;;;;;17.40;84.46;100928.19;5036618;28;20602;-64
2023/07/21 06:29:18;;;;;;;23.88;21.52;;;;;;;17.57;82.95;100928.69;5034884;28;20099;-63
2023/07/21 06:31:43;;;;;;;23.40;21.00;;;;;;;17.68;83.09;100925.97;5037387;28;20491;-65
2023/07/21 06:34:08;;;;;;;24.38;21.98;;;;;;;17.83;83.45;100919.41;5031169;28;20029;-65
2023/07/21 06:36:34;;;;;;;27.80;23.25;;;;;;;17.92;81.49;100924.06;5034963;28;20475;-65
2023/07/21 06:38:59;;;;;;;26.77;22.23;;;;;;;18.11;80.92;100919.91;5050463;28;20026;-65
2023/07/21 06:41:24;;;;;;;26.48;23.83;;;;;;;18.10;81.06;100923.53;5032527;28;20574;-64
2023/07/21 06:43:50;;;;;;;25.42;22.75;;;;;;;18.11;80.92;100926.13;5040562;28;20399;-64
2023/07/21 06:46:15;;;;;;;25.27;22.45;;;;;;;18.23;79.76;100918.91;5042357;28;20027;-64
2023/07/21 06:48:41;;;;;;;24.20;21.63;;;;;;;18.47;78.84;100916.00;5042072;28;20528;-64
2023/07/21 06:51:06;;;;;;;25.20;22.63;;;;;;;18.65;76.60;100917.19;5032660;28;20029;-63
2023/07/21 06:53:32;;;;;;;25.42;22.83;;;;;;;18.75;75.53;100917.28;5032737;28;20029;-64
2023/07/21 06:55:57;;;;;;;24.08;21.50;;;;;;;18.89;75.16;100919.69;5036953;28;20470;-64
2023/07/21 06:58:23;;;;;;;24.67;22.05;;;;;;;19.03;75.08;100915.81;5036760;28;20499;-64
2023/07/21 07:00:48;;;;;;;23.30;20.88;;;;;;;18.98;75.05;100914.47;5039831;28;20029;-65
2023/07/21 07:03:13;;;;;;;23.73;21.23;;;;;;;19.10;74.82;100913.44;5036269;28;20025;-65
2023/07/21 07:05:41;;;;;;;23.52;21.23;;;;;;;19.13;73.75;100905.09;5031675;28;20470;-64
2023/07/21 07:08:07;;;;;;;23.55;21.25;;;;;;;19.24;72.56;100917.66;5033563;28;20427;-64
2023/07/21 07:10:33;;;;;;;23.55;20.80;;;;;;;19.54;73.25;100920.41;5032530;28;20032;-65
2023/07/21 07:12:59;;;;;;;24.55;22.05;;;;;;;19.78;71.63;100914.72;5035129;28;20029;-65
2023/07/21 07:15:24;;;;;;;23.83;21.30;;;;;;;20.14;69.54;100918.66;5034331;28;20090;-64
2023/07/21 07:17:49;;;;;;;23.42;21.13;;;;;;;20.21;68.76;100916.28;5032788;28;20158;-65
2023/07/21 07:20:15;;;;;;;36.28;22.15;;;;;;;20.30;68.28;100920.84;5040825;28;20499;-65
2023/07/21 07:22:40;;;;;;;24.95;21.58;;;;;;;20.35;68.73;100921.28;5042390;28;20085;-65
2023/07/21 07:25:06;;;;;;;24.80;21.80;;;;;;;20.50;67.54;100915.50;5032177;28;20503;-65
2023/07/21 07:27:31;;;;;;;23.42;21.20;;;;;;;20.68;67.03;100915.66;5032242;28;20079;-65
2023/07/21 07:29:57;;;;;;;23.15;20.70;;;;;;;20.63;65.65;100907.97;5031627;28;20029;-65
2023/07/21 07:32:22;;;;;;;24.50;21.85;;;;;;;20.53;66.18;100917.94;5037876;28;20037;-65
2023/07/21 07:34:48;;;;;;;22.65;20.35;;;;;;;20.47;65.63;100921.16;5033467;28;20108;-65
2023/07/21 07:37:14;;;;;;;22.27;20.05;;;;;;;20.80;64.79;100911.81;5034590;28;20028;-65
2023/07/21 07:39:40;;;;;;;21.80;19.70;;;;;;;21.23;62.79;100911.34;5033839;28;20777;-66
2023/07/21 07:42:05;;;;;;;20.88;18.77;;;;;;;21.73;61.35;100913.81;5035876;28;20036;-64
2023/07/21 07:44:30;;;;;;;20.63;18.52;;;;;;;22.07;58.76;100910.50;5036412;28;20336;-63
2023/07/21 07:46:56;;;;;;;20.45;18.33;;;;;;;22.53;57.15;100909.56;5038218;28;20029;-64
2023/07/21 07:49:22;;;;;;;17.88;15.93;;;;;;;23.41;56.39;100916.91;5029903;28;20033;-65
2023/07/21 07:51:48;;;;;;;16.38;14.60;;;;;;;23.89;54.40;100916.38;5037382;28;20212;-64
2023/07/21 07:54:14;;;;;;;17.50;15.75;;;;;;;24.19;51.32;100923.13;5039208;28;20029;-64
2023/07/21 07:56:40;;;;;;;14.25;12.80;;;;;;;23.98;50.84;100920.84;5038715;28;20472;-64
2023/07/21 07:59:05;;;;;;;9.88;8.88;;;;;;;23.70;50.44;100919.34;5033021;28;20025;-65
2023/07/21 08:01:30;;;;;;;9.60;6.97;;;;;;;23.61;49.69;100924.69;5037357;28;20266;-65
2023/07/21 08:03:56;;;;;;;12.10;8.02;;;;;;;23.60;49.37;100922.16;5039606;28;20220;-64
2023/07/21 08:06:22;;;;;;;7.60;6.80;;;;;;;23.65;50.06;100924.38;5038847;28;20266;-65
2023/07/21 08:08:47;;;;;;;6.43;5.30;;;;;;;23.96;47.85;100922.03;5035936;28;20527;-64
2023/07/21 08:11:13;;;;;;;8.23;7.43;;;;;;;24.32;47.44;100925.38;5040721;28;20349;-65
2023/07/21 08:13:39;;;;;;;9.13;8.18;;;;;;;24.82;46.81;100914.44;5035079;28;20679;-64
2023/07/21 08:16:12;;;;;;;10.95;9.80;;;;;;;24.81;46.48;100922.81;5042507;28;20483;-64
2023/07/21 08:18:37;;;;;;;11.55;10.35;;;;;;;24.76;46.70;100917.03;5038050;28;20028;-64
2023/07/21 08:21:20;;;;;;;12.65;11.35;;;;;;;24.47;48.97;100923.78;5035496;28;20020;-64
2023/07/21 08:23:46;;;;;;;13.32;10.75;;;;;;;24.49;49.37;100919.00;5031810;28;20119;-64
2023/07/21 08:26:11;;;;;;;12.32;11.13;;;;;;;24.66;47.53;100922.59;5036549;28;20168;-64
2023/07/21 08:28:36;;;;;;;11.00;9.90;;;;;;;24.53;46.06;100922.25;5025438;28;20060;-64
2023/07/21 08:31:02;;;;;;;10.82;9.55;;;;;;;24.45;46.94;100916.78;5032895;28;20273;-64
2023/07/21 08:33:27;;;;;;;16.48;9.73;;;;;;;25.17;46.07;100922.50;5031088;28;20033;-64
2023/07/21 08:35:53;;;;;;;8.23;7.40;;;;;;;25.52;43.87;100913.94;5034146;28;20036;-64
2023/07/21 08:38:18;;;;;;;9.73;7.50;;;;;;;26.03;43.64;100919.09;5029231;28;20021;-64
2023/07/21 08:40:49;;;;;;;8.27;7.47;;;;;;;26.13;42.55;100921.63;5035073;28;20035;-64
2023/07/21 08:43:14;;;;;;;9.43;8.52;;;;;;;25.68;42.15;100920.38;5038003;28;20071;-63
2023/07/21 08:45:43;;;;;;;7.68;6.82;;;;;;;24.97;41.56;100917.38;5034025;28;20131;-64
2023/07/21 08:48:09;;;;;;;7.93;7.13;;;;;;;24.43;42.86;100918.84;5030584;28;20109;-64
2023/07/21 08:50:36;;;;;;;8.07;7.28;;;;;;;24.31;44.27;100923.69;5033002;28;20058;-64
2023/07/21 08:53:02;;;;;;;9.38;7.05;;;;;;;25.09;42.15;100917.91;5035362;28;21048;-63
2023/07/21 08:55:27;;;;;;;8.70;7.68;;;;;;;25.71;41.58;100906.38;5037530;28;20056;-63
2023/07/21 08:57:58;;;;;;;8.13;7.18;;;;;;;25.84;40.81;100914.91;5039992;28;20111;-63
2023/07/21 09:00:23;;;;;;;10.77;6.70;;;;;;;26.78;40.21;100908.44;5035782;28;20519;-63
2023/07/21 09:02:56;;;;;;;10.57;6.47;;;;;;;28.03;38.04;100907.91;5039416;28;20028;-64
2023/07/21 09:05:22;;;;;;;;;;;;;;;28.86;39.02;100911.22;5035487;28;20051;-64
2023/07/21 09:07:47;;;;;;;14.07;12.77;;;;;;;27.66;37.39;100908.84;5029224;28;19916;-63
2023/07/21 09:10:28;;;;;;;13.30;12.02;;;;;;;26.86;40.70;100915.72;5026320;28;20299;-63
2023/07/21 09:12:54;;;;;;;13.95;12.55;;;;;;;26.14;40.60;100915.97;5033761;28;20103;-63
2023/07/21 09:15:19;;;;;;;15.63;14.20;;;;;;;25.25;41.97;100907.00;5029149;28;20690;-63
2023/07/21 09:17:44;;;;;;;14.18;12.80;;;;;;;24.48;43.14;100917.31;5034338;28;20025;-64
2023/07/21 09:20:10;;;;;;;13.30;11.95;;;;;;;24.01;43.92;100919.69;5038710;28;20116;-64
2023/07/21 09:22:38;;;;;;;14.00;12.60;;;;;;;23.80;45.10;100917.38;5037218;28;20028;-65
2023/07/21 09:25:04;;;;;;;14.55;12.90;;;;;;;23.56;45.72;100920.75;5037671;28;20021;-64
2023/07/21 09:27:29;;;;;;;14.10;12.60;;;;;;;23.33;46.97;100909.59;5032399;28;20047;-64
2023/07/21 09:30:03;;;;;;;15.73;14.05;;;;;;;22.99;47.45;100923.06;5039611;28;20415;-63
2023/07/21 09:32:37;;;;;;;15.13;13.63;;;;;;;22.68;48.17;100915.28;5038924;28;20075;-63
2023/07/21 09:35:05;;;;;;;17.35;15.63;;;;;;;22.59;49.00;100922.50;5040319;28;20020;-64
2023/07/21 09:37:33;;;;;;;16.13;14.63;;;;;;;23.72;47.84;100918.19;5039150;28;20163;-64
2023/07/21 09:40:10;;;;;;;15.65;14.05;;;;;;;24.43;46.09;100914.22;5041224;28;20260;-64
2023/07/21 09:42:39;;;;;;;15.52;14.02;;;;;;;24.66;45.37;100903.53;5036551;28;20039;-64
2023/07/21 09:45:05;;;;;;;17.00;15.30;;;;;;;26.21;42.66;100894.25;5041137;28;20025;-64
2023/07/21 09:47:31;;;;;;;15.82;14.05;;;;;;;27.94;38.45;100895.38;5041428;28;20041;-64
2023/07/21 09:49:58;;;;;;;14.98;13.50;;;;;;;28.26;36.99;100889.50;5029901;28;20087;-63
2023/07/21 09:52:26;;;;;;;15.35;12.43;;;;;;;28.59;37.35;100889.00;5036823;28;20100;-64
2023/07/21 09:55:09;;;;;;;12.63;11.52;;;;;;;28.28;36.30;100894.75;5036584;28;20716;-64
2023/07/21 09:57:44;;;;;;;13.18;11.88;;;;;;;28.23;35.91;100889.03;5029489;28;20047;-63
2023/07/21 10:00:13;;;;;;;18.58;12.15;;;;;;;27.87;36.64;100898.03;5030842;28;20053;-64
2023/07/21 10:02:46;;;;;;;12.60;11.40;;;;;;;26.87;38.55;100898.28;5035382;28;20048;-64
2023/07/21 10:05:13;;;;;;;15.35;13.85;;;;;;;28.54;36.42;100895.06;5040648;28;20016;-64
2023/07/21 10:07:42;;;;;;;12.82;11.65;;;;;;;30.80;33.19;100893.78;5041264;28;20048;-64
2023/07/21 10:10:09;;;;;;;8.23;7.47;;;;;;;31.79;29.53;100884.63;5042136;28;20033;-65
2023/07/21 10:12:52;;;;;;;10.15;9.15;;;;;;;32.07;30.61;100898.13;5036771;28;20021;-65
2023/07/21 10:15:30;;;;;;;10.68;9.57;;;;;;;32.95;27.98;100889.16;5032656;28;20179;-64
2023/07/21 10:17:59;;;;;;;9.77;8.88;;;;;;;32.84;28.04;100892.59;5039701;28;20048;-65
2023/07/21 10:20:50;;;;;;;9.90;8.90;;;;;;;31.53;29.96;100884.72;5038560;28;20036;-65
2023/07/21 10:23:18;;;;;;;9.10;8.20;;;;;;;29.57;32.54;100889.28;5041856;28;20409;-64
2023/07/21 10:26:03;;;;;;;11.18;10.18;;;;;;;28.07;35.67;100897.44;5041077;28;20025;-65
2023/07/21 10:28:33;;;;;;;11.88;10.68;;;;;;;26.54;37.96;100894.97;5033310;28;20248;-64
2023/07/21 10:31:24;;;;;;;12.25;9.57;;;;;;;25.77;39.58;100892.09;5036522;28;20079;-64
2023/07/21 10:34:04;;;;;;;10.35;9.35;;;;;;;24.72;41.18;100885.72;5034702;28;20092;-65
2023/07/21 10:36:47;;;;;;;12.15;10.95;;;;;;;24.36;42.65;100900.41;5040755;28;20082;-64
2023/07/21 10:39:14;;;;;;;;;;;;;;;25.41;41.12;100897.09;5040446;28;20025;-64
2023/07/21 10:41:40;;;;;;;9.93;8.93;;;;;;;27.21;38.49;100886.94;5038369;28;19924;-65
2023/07/21 10:44:07;;;;;;;7.68;6.80;;;;;;;27.06;36.43;100897.81;5040418;28;20029;-64
2023/07/21 10:46:43;;;;;;;10.02;9.02;;;;;;;25.98;38.62;100902.41;5042059;28;20067;-64
2023/07/21 10:49:10;;;;;;;12.77;11.48;;;;;;;24.84;41.33;100909.72;5042233;28;20090;-66
2023/07/21 10:51:42;;;;;;;14.27;12.98;;;;;;;24.00;43.86;100909.81;5033541;28;20030;-65
2023/07/21 10:54:08;;;;;;;12.40;11.18;;;;;;;23.43;46.06;100913.03;5039225;28;20052;-65
2023/07/21 10:56:51;;;;;;;10.45;9.43;;;;;;;23.07;46.64;100925.84;5042569;28;20050;-64
2023/07/21 10:59:20;;;;;;;10.52;8.20;;;;;;;22.54;47.38;100923.97;5038812;28;20064;-64
2023/07/21 11:01:47;;;;;;;6.90;6.13;;;;;;;22.09;46.14;100922.91;5033850;28;20029;-64
2023/07/21 11:04:14;;;;;;;6.85;6.25;;;;;;;21.66;47.71;100928.97;5031533;28;20497;-64
2023/07/21 11:06:42;;;;;;;6.63;6.03;;;;;;;21.36;48.41;100925.50;5040821;28;20495;-63
2023/07/21 11:09:11;;;;;;;5.72;4.75;;;;;;;21.21;47.83;100920.63;5034509;28;20453;-65
2023/07/21 11:11:38;;;;;;;3.95;3.60;;;;;;;20.98;46.80;100922.78;5034407;28;20025;-64
2023/07/21 11:14:03;;;;;;;3.47;3.17;;;;;;;20.79;47.35;100931.78;5038064;28;20267;-64